sensor_id;sensor_type;location;lat;lon;timestamp;P1;durP1;ratioP1;P2;durP2;ratioP2
291;SDS011;23311;48.776;9.162;2023-03-01T00:00:02;18.40;;;14.00;;
291;SDS011;23311;48.776;9.162;2023-03-01T00:02:30;16.20;;;13.53;;
291;SDS011;23311;48.776;9.162;2023-03-01T00:04:58;19.10;;;13.37;;
291;SDS011;23311;48.776;9.162;2023-03-01T00:07:26;18.50;;;14.73;;
291;SDS011;23311;48.776;9.162;2023-03-01T00:09:56;16.57;;;13.53;;
291;SDS011;23311;48.776;9.162;2023-03-01T00:12:24;15.60;;;13.33;;
291;SDS011;23311;48.776;9.162;2023-03-01T00:14:52;17.50;;;13.60;;
291;SDS011;23311;48.776;9.162;2023-03-01T00:17:20;21.17;;;15.60;;
291;SDS011;23311;48.776;9.162;2023-03-01T00:19:48;16.80;;;12.77;;
291;SDS011;23311;48.776;9.162;2023-03-01T00:22:16;19.23;;;13.10;;
291;SDS011;23311;48.776;9.162;2023-03-01T00:24:44;17.10;;;12.80;;
291;SDS011;23311;48.776;9.162;2023-03-01T00:27:14;20.23;;;13.00;;
291;SDS011;23311;48.776;9.162;2023-03-01T00:29:42;19.13;;;14.33;;
291;SDS011;23311;48.776;9.162;2023-03-01T00:32:10;17.50;;;13.10;;
291;SDS011;23311;48.776;9.162;2023-03-01T00:34:38;16.60;;;14.00;;
291;SDS011;23311;48.776;9.162;2023-03-01T00:37:06;17.20;;;12.80;;
291;SDS011;23311;48.776;9.162;2023-03-01T00:39:34;16.50;;;13.40;;
291;SDS011;23311;48.776;9.162;2023-03-01T00:42:02;18.83;;;14.33;;
291;SDS011;23311;48.776;9.162;2023-03-01T00:44:32;17.73;;;13.57;;
291;SDS011;23311;48.776;9.162;2023-03-01T00:47:00;21.07;;;14.77;;
291;SDS011;23311;48.776;9.162;2023-03-01T00:49:28;17.27;;;13.40;;
291;SDS011;23311;48.776;9.162;2023-03-01T00:51:56;18.80;;;14.37;;
291;SDS011;23311;48.776;9.162;2023-03-01T00:54:24;18.93;;;15.10;;
291;SDS011;23311;48.776;9.162;2023-03-01T00:56:52;19.50;;;14.00;;
291;SDS011;23311;48.776;9.162;2023-03-01T00:59:20;20.67;;;13.93;;
291;SDS011;23311;48.776;9.162;2023-03-01T01:01:50;17.73;;;13.20;;
291;SDS011;23311;48.776;9.162;2023-03-01T01:04:18;19.13;;;14.57;;
291;SDS011;23311;48.776;9.162;2023-03-01T01:06:46;19.27;;;13.90;;
291;SDS011;23311;48.776;9.162;2023-03-01T01:09:15;15.60;;;12.90;;
291;SDS011;23311;48.776;9.162;2023-03-01T01:11:44;15.87;;;12.80;;
291;SDS011;23311;48.776;9.162;2023-03-01T01:14:14;19.87;;;15.43;;
291;SDS011;23311;48.776;9.162;2023-03-01T01:16:42;17.17;;;14.63;;
291;SDS011;23311;48.776;9.162;2023-03-01T01:19:11;16.30;;;11.97;;
291;SDS011;23311;48.776;9.162;2023-03-01T01:21:40;18.07;;;13.90;;
291;SDS011;23311;48.776;9.162;2023-03-01T01:24:09;18.83;;;15.00;;
291;SDS011;23311;48.776;9.162;2023-03-01T01:26:38;17.17;;;13.37;;
291;SDS011;23311;48.776;9.162;2023-03-01T01:29:06;18.23;;;14.70;;
291;SDS011;23311;48.776;9.162;2023-03-01T01:31:35;18.20;;;14.90;;
291;SDS011;23311;48.776;9.162;2023-03-01T01:34:05;15.83;;;13.83;;
291;SDS011;23311;48.776;9.162;2023-03-01T01:36:36;18.57;;;14.60;;
291;SDS011;23311;48.776;9.162;2023-03-01T01:39:04;16.87;;;13.30;;
291;SDS011;23311;48.776;9.162;2023-03-01T01:41:33;21.17;;;14.73;;
291;SDS011;23311;48.776;9.162;2023-03-01T01:44:11;20.73;;;15.43;;
291;SDS011;23311;48.776;9.162;2023-03-01T01:46:42;22.50;;;14.57;;
291;SDS011;23311;48.776;9.162;2023-03-01T01:49:18;20.37;;;14.00;;
291;SDS011;23311;48.776;9.162;2023-03-01T01:51:54;17.53;;;13.63;;
291;SDS011;23311;48.776;9.162;2023-03-01T01:54:27;18.20;;;14.20;;
291;SDS011;23311;48.776;9.162;2023-03-01T01:56:59;18.97;;;15.00;;
291;SDS011;23311;48.776;9.162;2023-03-01T01:59:31;22.70;;;16.60;;
291;SDS011;23311;48.776;9.162;2023-03-01T02:02:00;17.97;;;15.00;;
291;SDS011;23311;48.776;9.162;2023-03-01T02:04:31;17.53;;;13.57;;
291;SDS011;23311;48.776;9.162;2023-03-01T02:07:02;17.67;;;14.23;;
291;SDS011;23311;48.776;9.162;2023-03-01T02:09:36;18.20;;;14.70;;
291;SDS011;23311;48.776;9.162;2023-03-01T02:12:05;17.90;;;13.57;;
291;SDS011;23311;48.776;9.162;2023-03-01T02:14:33;20.17;;;15.23;;
291;SDS011;23311;48.776;9.162;2023-03-01T02:17:01;17.43;;;13.90;;
291;SDS011;23311;48.776;9.162;2023-03-01T02:19:33;17.47;;;13.90;;
291;SDS011;23311;48.776;9.162;2023-03-01T02:22:15;20.40;;;14.50;;
291;SDS011;23311;48.776;9.162;2023-03-01T02:24:52;16.00;;;14.23;;
291;SDS011;23311;48.776;9.162;2023-03-01T02:27:31;16.23;;;13.57;;
291;SDS011;23311;48.776;9.162;2023-03-01T02:30:06;18.70;;;14.43;;
291;SDS011;23311;48.776;9.162;2023-03-01T02:32:39;20.97;;;14.37;;
291;SDS011;23311;48.776;9.162;2023-03-01T02:35:08;21.70;;;14.47;;
291;SDS011;23311;48.776;9.162;2023-03-01T02:37:38;18.67;;;14.90;;
291;SDS011;23311;48.776;9.162;2023-03-01T02:40:08;18.23;;;14.37;;
291;SDS011;23311;48.776;9.162;2023-03-01T02:42:40;16.83;;;13.53;;
291;SDS011;23311;48.776;9.162;2023-03-01T02:45:16;16.73;;;14.00;;
291;SDS011;23311;48.776;9.162;2023-03-01T02:47:44;18.10;;;13.70;;
291;SDS011;23311;48.776;9.162;2023-03-01T02:50:15;16.53;;;15.60;;
291;SDS011;23311;48.776;9.162;2023-03-01T02:52:53;18.87;;;14.83;;
291;SDS011;23311;48.776;9.162;2023-03-01T02:55:24;20.60;;;14.60;;
291;SDS011;23311;48.776;9.162;2023-03-01T02:57:53;21.23;;;14.37;;
291;SDS011;23311;48.776;9.162;2023-03-01T03:00:24;18.30;;;14.70;;
291;SDS011;23311;48.776;9.162;2023-03-01T03:02:59;22.40;;;15.37;;
291;SDS011;23311;48.776;9.162;2023-03-01T03:05:28;20.30;;;14.90;;
291;SDS011;23311;48.776;9.162;2023-03-01T03:07:57;20.37;;;14.90;;
291;SDS011;23311;48.776;9.162;2023-03-01T03:10:27;19.17;;;15.77;;
291;SDS011;23311;48.776;9.162;2023-03-01T03:12:57;16.90;;;14.60;;
291;SDS011;23311;48.776;9.162;2023-03-01T03:15:28;18.10;;;14.20;;
291;SDS011;23311;48.776;9.162;2023-03-01T03:17:56;18.73;;;14.60;;
291;SDS011;23311;48.776;9.162;2023-03-01T03:20:26;22.27;;;14.90;;
291;SDS011;23311;48.776;9.162;2023-03-01T03:22:56;20.50;;;15.37;;
291;SDS011;23311;48.776;9.162;2023-03-01T03:25:25;20.50;;;14.80;;
291;SDS011;23311;48.776;9.162;2023-03-01T03:27:55;21.57;;;14.63;;
291;SDS011;23311;48.776;9.162;2023-03-01T03:30:25;21.37;;;14.47;;
291;SDS011;23311;48.776;9.162;2023-03-01T03:32:56;22.87;;;16.77;;
291;SDS011;23311;48.776;9.162;2023-03-01T03:35:27;21.77;;;15.93;;
291;SDS011;23311;48.776;9.162;2023-03-01T03:37:56;19.33;;;15.53;;
291;SDS011;23311;48.776;9.162;2023-03-01T03:40:33;18.93;;;15.40;;
291;SDS011;23311;48.776;9.162;2023-03-01T03:43:03;18.80;;;15.07;;
291;SDS011;23311;48.776;9.162;2023-03-01T03:45:32;20.70;;;14.83;;
291;SDS011;23311;48.776;9.162;2023-03-01T03:48:03;19.17;;;14.33;;
291;SDS011;23311;48.776;9.162;2023-03-01T03:50:32;23.40;;;15.67;;
291;SDS011;23311;48.776;9.162;2023-03-01T03:53:01;21.40;;;15.27;;
291;SDS011;23311;48.776;9.162;2023-03-01T03:55:31;16.90;;;14.67;;
291;SDS011;23311;48.776;9.162;2023-03-01T03:58:02;21.60;;;15.40;;
291;SDS011;23311;48.776;9.162;2023-03-01T04:00:33;19.00;;;15.53;;
291;SDS011;23311;48.776;9.162;2023-03-01T04:03:03;18.77;;;15.00;;
291;SDS011;23311;48.776;9.162;2023-03-01T04:05:31;22.27;;;15.63;;
291;SDS011;23311;48.776;9.162;2023-03-01T04:07:59;20.17;;;15.83;;
291;SDS011;23311;48.776;9.162;2023-03-01T04:10:34;22.63;;;16.10;;
291;SDS011;23311;48.776;9.162;2023-03-01T04:13:03;25.30;;;16.70;;
291;SDS011;23311;48.776;9.162;2023-03-01T04:15:32;17.63;;;15.43;;
291;SDS011;23311;48.776;9.162;2023-03-01T04:18:02;18.47;;;14.10;;
291;SDS011;23311;48.776;9.162;2023-03-01T04:20:31;19.23;;;15.50;;
291;SDS011;23311;48.776;9.162;2023-03-01T04:23:04;20.20;;;15.03;;
291;SDS011;23311;48.776;9.162;2023-03-01T04:25:39;21.07;;;14.40;;
291;SDS011;23311;48.776;9.162;2023-03-01T04:28:09;18.30;;;14.93;;
291;SDS011;23311;48.776;9.162;2023-03-01T04:30:37;20.70;;;15.53;;
291;SDS011;23311;48.776;9.162;2023-03-01T04:33:09;17.90;;;14.40;;
291;SDS011;23311;48.776;9.162;2023-03-01T04:35:38;21.70;;;14.60;;
291;SDS011;23311;48.776;9.162;2023-03-01T04:38:07;19.90;;;14.83;;
291;SDS011;23311;48.776;9.162;2023-03-01T04:40:35;21.20;;;15.77;;
291;SDS011;23311;48.776;9.162;2023-03-01T04:43:04;22.00;;;15.57;;
291;SDS011;23311;48.776;9.162;2023-03-01T04:45:32;20.73;;;16.03;;
291;SDS011;23311;48.776;9.162;2023-03-01T04:48:02;21.17;;;14.97;;
291;SDS011;23311;48.776;9.162;2023-03-01T04:50:32;20.63;;;14.57;;
291;SDS011;23311;48.776;9.162;2023-03-01T04:53:00;22.03;;;14.47;;
291;SDS011;23311;48.776;9.162;2023-03-01T04:55:29;20.20;;;14.27;;
291;SDS011;23311;48.776;9.162;2023-03-01T04:57:58;19.40;;;15.57;;
291;SDS011;23311;48.776;9.162;2023-03-01T05:00:26;19.10;;;15.17;;
291;SDS011;23311;48.776;9.162;2023-03-01T05:02:55;21.60;;;14.97;;
291;SDS011;23311;48.776;9.162;2023-03-01T05:05:26;19.50;;;15.33;;
291;SDS011;23311;48.776;9.162;2023-03-01T05:07:57;20.00;;;15.63;;
291;SDS011;23311;48.776;9.162;2023-03-01T05:10:27;18.97;;;15.13;;
291;SDS011;23311;48.776;9.162;2023-03-01T05:12:56;24.50;;;17.53;;
291;SDS011;23311;48.776;9.162;2023-03-01T05:15:25;19.33;;;15.10;;
291;SDS011;23311;48.776;9.162;2023-03-01T05:17:54;20.63;;;15.60;;
291;SDS011;23311;48.776;9.162;2023-03-01T05:20:25;21.13;;;15.70;;
291;SDS011;23311;48.776;9.162;2023-03-01T05:22:55;17.20;;;14.50;;
291;SDS011;23311;48.776;9.162;2023-03-01T05:25:26;23.27;;;14.90;;
291;SDS011;23311;48.776;9.162;2023-03-01T05:27:59;20.43;;;15.10;;
291;SDS011;23311;48.776;9.162;2023-03-01T05:30:30;21.40;;;14.27;;
291;SDS011;23311;48.776;9.162;2023-03-01T05:32:59;21.60;;;14.90;;
291;SDS011;23311;48.776;9.162;2023-03-01T05:35:27;21.67;;;15.53;;
291;SDS011;23311;48.776;9.162;2023-03-01T05:38:00;26.03;;;18.80;;
291;SDS011;23311;48.776;9.162;2023-03-01T05:40:28;23.07;;;16.30;;
291;SDS011;23311;48.776;9.162;2023-03-01T05:42:56;17.50;;;14.30;;
291;SDS011;23311;48.776;9.162;2023-03-01T05:45:25;25.03;;;17.77;;
291;SDS011;23311;48.776;9.162;2023-03-01T05:47:54;22.83;;;16.77;;
291;SDS011;23311;48.776;9.162;2023-03-01T05:50:22;19.30;;;14.70;;
291;SDS011;23311;48.776;9.162;2023-03-01T05:52:56;22.50;;;15.37;;
291;SDS011;23311;48.776;9.162;2023-03-01T05:55:27;19.40;;;14.47;;
291;SDS011;23311;48.776;9.162;2023-03-01T05:57:57;21.43;;;14.30;;
291;SDS011;23311;48.776;9.162;2023-03-01T06:00:26;21.47;;;14.90;;
291;SDS011;23311;48.776;9.162;2023-03-01T06:02:55;24.40;;;16.53;;
291;SDS011;23311;48.776;9.162;2023-03-01T06:05:24;23.13;;;15.63;;
291;SDS011;23311;48.776;9.162;2023-03-01T06:07:52;22.83;;;15.57;;
291;SDS011;23311;48.776;9.162;2023-03-01T06:10:21;23.77;;;15.47;;
291;SDS011;23311;48.776;9.162;2023-03-01T06:12:51;20.67;;;15.37;;
291;SDS011;23311;48.776;9.162;2023-03-01T06:15:19;22.60;;;15.40;;
291;SDS011;23311;48.776;9.162;2023-03-01T06:17:48;19.50;;;15.27;;
291;SDS011;23311;48.776;9.162;2023-03-01T06:20:17;21.00;;;15.80;;
291;SDS011;23311;48.776;9.162;2023-03-01T06:22:47;21.40;;;16.03;;
291;SDS011;23311;48.776;9.162;2023-03-01T06:25:16;21.07;;;15.00;;
291;SDS011;23311;48.776;9.162;2023-03-01T06:27:46;19.07;;;15.27;;
291;SDS011;23311;48.776;9.162;2023-03-01T06:30:20;22.77;;;15.63;;
291;SDS011;23311;48.776;9.162;2023-03-01T06:32:50;18.73;;;14.53;;
291;SDS011;23311;48.776;9.162;2023-03-01T06:35:18;21.37;;;16.10;;
291;SDS011;23311;48.776;9.162;2023-03-01T06:37:47;23.50;;;14.70;;
291;SDS011;23311;48.776;9.162;2023-03-01T06:40:15;20.53;;;14.70;;
291;SDS011;23311;48.776;9.162;2023-03-01T06:42:47;24.40;;;18.00;;
291;SDS011;23311;48.776;9.162;2023-03-01T06:45:16;22.90;;;16.57;;
291;SDS011;23311;48.776;9.162;2023-03-01T06:47:47;21.73;;;16.50;;
291;SDS011;23311;48.776;9.162;2023-03-01T06:50:15;21.00;;;16.10;;
291;SDS011;23311;48.776;9.162;2023-03-01T06:52:44;21.10;;;15.60;;
291;SDS011;23311;48.776;9.162;2023-03-01T06:55:15;20.43;;;15.53;;
291;SDS011;23311;48.776;9.162;2023-03-01T06:57:44;18.70;;;16.37;;
291;SDS011;23311;48.776;9.162;2023-03-01T07:00:13;20.67;;;14.70;;
291;SDS011;23311;48.776;9.162;2023-03-01T07:02:42;20.27;;;16.77;;
291;SDS011;23311;48.776;9.162;2023-03-01T07:05:11;21.07;;;15.07;;
291;SDS011;23311;48.776;9.162;2023-03-01T07:07:39;22.17;;;15.50;;
291;SDS011;23311;48.776;9.162;2023-03-01T07:10:09;22.73;;;15.07;;
291;SDS011;23311;48.776;9.162;2023-03-01T07:12:38;21.73;;;17.17;;
291;SDS011;23311;48.776;9.162;2023-03-01T07:15:09;21.70;;;15.83;;
291;SDS011;23311;48.776;9.162;2023-03-01T07:17:38;21.27;;;15.90;;
291;SDS011;23311;48.776;9.162;2023-03-01T07:20:06;22.90;;;16.50;;
291;SDS011;23311;48.776;9.162;2023-03-01T07:22:36;20.13;;;13.80;;
291;SDS011;23311;48.776;9.162;2023-03-01T07:25:06;22.60;;;16.40;;
291;SDS011;23311;48.776;9.162;2023-03-01T07:27:35;22.00;;;16.50;;
291;SDS011;23311;48.776;9.162;2023-03-01T07:30:03;20.37;;;15.67;;
291;SDS011;23311;48.776;9.162;2023-03-01T07:32:32;20.03;;;15.47;;
291;SDS011;23311;48.776;9.162;2023-03-01T07:35:01;22.50;;;16.73;;
291;SDS011;23311;48.776;9.162;2023-03-01T07:37:29;26.90;;;16.03;;
291;SDS011;23311;48.776;9.162;2023-03-01T07:39:58;20.57;;;15.57;;
291;SDS011;23311;48.776;9.162;2023-03-01T07:42:27;22.17;;;15.90;;
291;SDS011;23311;48.776;9.162;2023-03-01T07:44:55;25.20;;;17.63;;
291;SDS011;23311;48.776;9.162;2023-03-01T07:47:23;23.00;;;16.80;;
291;SDS011;23311;48.776;9.162;2023-03-01T07:49:51;21.90;;;15.63;;
291;SDS011;23311;48.776;9.162;2023-03-01T07:52:19;21.30;;;16.30;;
291;SDS011;23311;48.776;9.162;2023-03-01T07:54:47;24.20;;;16.30;;
291;SDS011;23311;48.776;9.162;2023-03-01T07:57:16;23.77;;;16.67;;
291;SDS011;23311;48.776;9.162;2023-03-01T07:59:44;24.67;;;15.30;;
291;SDS011;23311;48.776;9.162;2023-03-01T08:02:12;22.97;;;17.00;;
291;SDS011;23311;48.776;9.162;2023-03-01T08:04:41;21.57;;;16.47;;
291;SDS011;23311;48.776;9.162;2023-03-01T08:07:09;22.40;;;17.57;;
291;SDS011;23311;48.776;9.162;2023-03-01T08:09:37;24.40;;;15.80;;
291;SDS011;23311;48.776;9.162;2023-03-01T08:12:06;21.27;;;17.13;;
291;SDS011;23311;48.776;9.162;2023-03-01T08:14:37;31.00;;;16.97;;
291;SDS011;23311;48.776;9.162;2023-03-01T08:17:07;24.67;;;16.53;;
291;SDS011;23311;48.776;9.162;2023-03-01T08:19:35;22.60;;;16.80;;
291;SDS011;23311;48.776;9.162;2023-03-01T08:22:03;22.60;;;16.07;;
291;SDS011;23311;48.776;9.162;2023-03-01T08:24:31;25.03;;;15.83;;
291;SDS011;23311;48.776;9.162;2023-03-01T08:26:59;22.30;;;15.77;;
291;SDS011;23311;48.776;9.162;2023-03-01T08:29:30;23.67;;;17.20;;
291;SDS011;23311;48.776;9.162;2023-03-01T08:31:59;28.33;;;17.57;;
291;SDS011;23311;48.776;9.162;2023-03-01T08:34:28;24.30;;;17.10;;
291;SDS011;23311;48.776;9.162;2023-03-01T08:36:57;21.07;;;16.23;;
291;SDS011;23311;48.776;9.162;2023-03-01T08:39:25;19.67;;;14.73;;
291;SDS011;23311;48.776;9.162;2023-03-01T08:41:53;21.90;;;17.50;;
291;SDS011;23311;48.776;9.162;2023-03-01T08:44:21;21.43;;;15.53;;
291;SDS011;23311;48.776;9.162;2023-03-01T08:46:50;25.03;;;17.90;;
291;SDS011;23311;48.776;9.162;2023-03-01T08:49:20;19.70;;;14.87;;
291;SDS011;23311;48.776;9.162;2023-03-01T08:51:49;26.87;;;17.37;;
291;SDS011;23311;48.776;9.162;2023-03-01T08:54:17;20.00;;;16.40;;
291;SDS011;23311;48.776;9.162;2023-03-01T08:56:48;22.57;;;16.47;;
291;SDS011;23311;48.776;9.162;2023-03-01T08:59:16;20.23;;;15.13;;
291;SDS011;23311;48.776;9.162;2023-03-01T09:01:45;24.60;;;15.93;;
291;SDS011;23311;48.776;9.162;2023-03-01T09:04:14;21.70;;;15.27;;
291;SDS011;23311;48.776;9.162;2023-03-01T09:06:44;20.20;;;16.50;;
291;SDS011;23311;48.776;9.162;2023-03-01T09:09:12;23.10;;;15.73;;
291;SDS011;23311;48.776;9.162;2023-03-01T09:11:42;21.93;;;16.27;;
291;SDS011;23311;48.776;9.162;2023-03-01T09:14:12;23.07;;;16.90;;
291;SDS011;23311;48.776;9.162;2023-03-01T09:16:41;24.03;;;17.00;;
291;SDS011;23311;48.776;9.162;2023-03-01T09:19:09;22.10;;;16.13;;
291;SDS011;23311;48.776;9.162;2023-03-01T09:21:38;22.60;;;16.73;;
291;SDS011;23311;48.776;9.162;2023-03-01T09:24:08;21.17;;;16.27;;
291;SDS011;23311;48.776;9.162;2023-03-01T09:26:40;22.60;;;15.43;;
291;SDS011;23311;48.776;9.162;2023-03-01T09:29:09;25.43;;;16.07;;
291;SDS011;23311;48.776;9.162;2023-03-01T09:31:37;25.30;;;16.97;;
291;SDS011;23311;48.776;9.162;2023-03-01T09:34:06;19.63;;;15.43;;
291;SDS011;23311;48.776;9.162;2023-03-01T09:36:35;21.93;;;16.30;;
291;SDS011;23311;48.776;9.162;2023-03-01T09:39:04;22.57;;;16.93;;
291;SDS011;23311;48.776;9.162;2023-03-01T09:41:42;21.00;;;15.37;;
291;SDS011;23311;48.776;9.162;2023-03-01T09:44:18;23.27;;;15.80;;
291;SDS011;23311;48.776;9.162;2023-03-01T09:46:53;22.30;;;15.20;;
291;SDS011;23311;48.776;9.162;2023-03-01T09:49:23;21.27;;;14.70;;
291;SDS011;23311;48.776;9.162;2023-03-01T09:51:55;21.47;;;14.83;;
291;SDS011;23311;48.776;9.162;2023-03-01T09:54:25;23.50;;;15.30;;
291;SDS011;23311;48.776;9.162;2023-03-01T09:57:13;22.37;;;15.43;;
291;SDS011;23311;48.776;9.162;2023-03-01T09:59:52;20.03;;;15.40;;
291;SDS011;23311;48.776;9.162;2023-03-01T10:02:32;23.60;;;15.87;;
291;SDS011;23311;48.776;9.162;2023-03-01T10:05:12;23.33;;;16.30;;
291;SDS011;23311;48.776;9.162;2023-03-01T10:07:51;21.67;;;16.10;;
291;SDS011;23311;48.776;9.162;2023-03-01T10:10:32;18.70;;;14.13;;
291;SDS011;23311;48.776;9.162;2023-03-01T10:13:06;24.80;;;15.67;;
291;SDS011;23311;48.776;9.162;2023-03-01T10:15:43;19.80;;;14.67;;
291;SDS011;23311;48.776;9.162;2023-03-01T10:18:16;21.70;;;15.00;;
291;SDS011;23311;48.776;9.162;2023-03-01T10:20:48;21.33;;;14.97;;
291;SDS011;23311;48.776;9.162;2023-03-01T10:23:22;19.63;;;14.83;;
291;SDS011;23311;48.776;9.162;2023-03-01T10:25:56;17.83;;;13.47;;
291;SDS011;23311;48.776;9.162;2023-03-01T10:28:40;20.30;;;15.47;;
291;SDS011;23311;48.776;9.162;2023-03-01T10:31:15;22.90;;;15.00;;
291;SDS011;23311;48.776;9.162;2023-03-01T10:33:48;18.00;;;13.17;;
291;SDS011;23311;48.776;9.162;2023-03-01T10:36:21;20.63;;;14.40;;
291;SDS011;23311;48.776;9.162;2023-03-01T10:38:50;19.67;;;14.87;;
291;SDS011;23311;48.776;9.162;2023-03-01T10:41:20;20.93;;;15.10;;
291;SDS011;23311;48.776;9.162;2023-03-01T10:43:52;18.50;;;14.50;;
291;SDS011;23311;48.776;9.162;2023-03-01T10:46:23;17.23;;;14.53;;
291;SDS011;23311;48.776;9.162;2023-03-01T10:49:04;17.43;;;13.10;;
291;SDS011;23311;48.776;9.162;2023-03-01T10:51:34;19.13;;;14.53;;
291;SDS011;23311;48.776;9.162;2023-03-01T10:54:03;20.13;;;14.73;;
291;SDS011;23311;48.776;9.162;2023-03-01T10:56:45;19.50;;;14.80;;
291;SDS011;23311;48.776;9.162;2023-03-01T10:59:24;17.90;;;13.00;;
291;SDS011;23311;48.776;9.162;2023-03-01T11:04:58;17.13;;;13.27;;
291;SDS011;23311;48.776;9.162;2023-03-01T11:07:28;16.30;;;13.20;;
291;SDS011;23311;48.776;9.162;2023-03-01T11:09:57;20.13;;;13.00;;
291;SDS011;23311;48.776;9.162;2023-03-01T11:12:25;18.57;;;13.27;;
291;SDS011;23311;48.776;9.162;2023-03-01T11:14:57;16.03;;;13.50;;
291;SDS011;23311;48.776;9.162;2023-03-01T11:17:27;17.87;;;13.10;;
291;SDS011;23311;48.776;9.162;2023-03-01T11:20:05;17.17;;;14.33;;
291;SDS011;23311;48.776;9.162;2023-03-01T11:22:45;18.13;;;13.50;;
291;SDS011;23311;48.776;9.162;2023-03-01T11:25:17;17.03;;;13.77;;
291;SDS011;23311;48.776;9.162;2023-03-01T11:27:50;17.37;;;14.70;;
291;SDS011;23311;48.776;9.162;2023-03-01T11:30:22;19.23;;;14.57;;
291;SDS011;23311;48.776;9.162;2023-03-01T11:33:01;19.07;;;15.07;;
291;SDS011;23311;48.776;9.162;2023-03-01T11:35:53;18.90;;;13.63;;
291;SDS011;23311;48.776;9.162;2023-03-01T11:38:28;19.50;;;14.70;;
291;SDS011;23311;48.776;9.162;2023-03-01T11:40:59;17.00;;;14.47;;
291;SDS011;23311;48.776;9.162;2023-03-01T11:43:36;18.27;;;13.77;;
291;SDS011;23311;48.776;9.162;2023-03-01T11:46:22;17.77;;;14.43;;
291;SDS011;23311;48.776;9.162;2023-03-01T11:49:14;19.40;;;15.00;;
291;SDS011;23311;48.776;9.162;2023-03-01T11:51:55;19.30;;;14.13;;
291;SDS011;23311;48.776;9.162;2023-03-01T11:54:34;18.80;;;13.90;;
291;SDS011;23311;48.776;9.162;2023-03-01T11:57:18;14.77;;;12.50;;
291;SDS011;23311;48.776;9.162;2023-03-01T12:00:18;18.33;;;13.80;;
291;SDS011;23311;48.776;9.162;2023-03-01T12:03:09;18.77;;;13.73;;
291;SDS011;23311;48.776;9.162;2023-03-01T12:08:56;17.90;;;14.13;;
291;SDS011;23311;48.776;9.162;2023-03-01T12:11:35;17.93;;;14.37;;
291;SDS011;23311;48.776;9.162;2023-03-01T12:17:28;15.50;;;13.50;;
291;SDS011;23311;48.776;9.162;2023-03-01T12:23:07;17.40;;;13.70;;
291;SDS011;23311;48.776;9.162;2023-03-01T12:25:54;18.83;;;12.10;;
291;SDS011;23311;48.776;9.162;2023-03-01T12:31:32;16.23;;;12.30;;
291;SDS011;23311;48.776;9.162;2023-03-01T12:34:24;18.20;;;13.60;;
291;SDS011;23311;48.776;9.162;2023-03-01T12:37:17;18.37;;;13.23;;
291;SDS011;23311;48.776;9.162;2023-03-01T12:39:57;14.93;;;12.57;;
291;SDS011;23311;48.776;9.162;2023-03-01T12:42:35;21.40;;;12.63;;
291;SDS011;23311;48.776;9.162;2023-03-01T12:45:24;19.53;;;12.80;;
291;SDS011;23311;48.776;9.162;2023-03-01T12:48:04;14.47;;;11.70;;
291;SDS011;23311;48.776;9.162;2023-03-01T12:50:46;13.60;;;12.33;;
291;SDS011;23311;48.776;9.162;2023-03-01T12:53:22;14.00;;;11.87;;
291;SDS011;23311;48.776;9.162;2023-03-01T12:55:51;13.67;;;11.80;;
291;SDS011;23311;48.776;9.162;2023-03-01T12:58:24;16.33;;;12.60;;
291;SDS011;23311;48.776;9.162;2023-03-01T13:01:15;14.60;;;13.43;;
291;SDS011;23311;48.776;9.162;2023-03-01T13:04:07;13.67;;;11.80;;
291;SDS011;23311;48.776;9.162;2023-03-01T13:07:11;13.60;;;11.60;;
291;SDS011;23311;48.776;9.162;2023-03-01T13:09:49;15.10;;;12.30;;
291;SDS011;23311;48.776;9.162;2023-03-01T13:12:41;15.93;;;12.17;;
291;SDS011;23311;48.776;9.162;2023-03-01T13:15:27;14.43;;;11.80;;
291;SDS011;23311;48.776;9.162;2023-03-01T13:18:01;15.57;;;10.73;;
291;SDS011;23311;48.776;9.162;2023-03-01T13:20:32;16.73;;;12.03;;
291;SDS011;23311;48.776;9.162;2023-03-01T13:23:06;13.90;;;10.90;;
291;SDS011;23311;48.776;9.162;2023-03-01T13:28:38;13.10;;;10.83;;
291;SDS011;23311;48.776;9.162;2023-03-01T13:34:41;14.60;;;12.40;;
291;SDS011;23311;48.776;9.162;2023-03-01T13:37:31;15.70;;;12.37;;
291;SDS011;23311;48.776;9.162;2023-03-01T13:40:03;14.00;;;12.07;;
291;SDS011;23311;48.776;9.162;2023-03-01T13:42:52;14.77;;;12.60;;
291;SDS011;23311;48.776;9.162;2023-03-01T13:45:36;16.53;;;12.67;;
291;SDS011;23311;48.776;9.162;2023-03-01T13:48:09;17.13;;;12.50;;
291;SDS011;23311;48.776;9.162;2023-03-01T13:50:43;16.03;;;12.60;;
291;SDS011;23311;48.776;9.162;2023-03-01T13:53:16;14.47;;;11.93;;
291;SDS011;23311;48.776;9.162;2023-03-01T13:55:46;18.73;;;12.63;;
291;SDS011;23311;48.776;9.162;2023-03-01T13:58:18;17.30;;;13.90;;
291;SDS011;23311;48.776;9.162;2023-03-01T14:00:54;17.50;;;13.50;;
291;SDS011;23311;48.776;9.162;2023-03-01T14:03:24;20.20;;;13.10;;
291;SDS011;23311;48.776;9.162;2023-03-01T14:06:03;17.27;;;13.63;;
291;SDS011;23311;48.776;9.162;2023-03-01T14:08:44;19.37;;;13.00;;
291;SDS011;23311;48.776;9.162;2023-03-01T14:11:20;16.93;;;13.80;;
291;SDS011;23311;48.776;9.162;2023-03-01T14:14:13;17.67;;;13.80;;
291;SDS011;23311;48.776;9.162;2023-03-01T14:18:07;18.93;;;14.40;;
291;SDS011;23311;48.776;9.162;2023-03-01T14:20:19;19.73;;;14.60;;
291;SDS011;23311;48.776;9.162;2023-03-01T14:22:49;16.20;;;13.43;;
291;SDS011;23311;48.776;9.162;2023-03-01T14:25:24;20.40;;;14.87;;
291;SDS011;23311;48.776;9.162;2023-03-01T14:27:57;18.37;;;15.40;;
291;SDS011;23311;48.776;9.162;2023-03-01T14:30:33;18.80;;;14.20;;
291;SDS011;23311;48.776;9.162;2023-03-01T14:33:04;17.93;;;13.80;;
291;SDS011;23311;48.776;9.162;2023-03-01T14:35:51;20.80;;;14.10;;
291;SDS011;23311;48.776;9.162;2023-03-01T14:38:21;19.07;;;13.47;;
291;SDS011;23311;48.776;9.162;2023-03-01T14:40:51;18.33;;;14.73;;
291;SDS011;23311;48.776;9.162;2023-03-01T14:43:22;20.20;;;14.83;;
291;SDS011;23311;48.776;9.162;2023-03-01T14:45:53;20.40;;;14.70;;
291;SDS011;23311;48.776;9.162;2023-03-01T14:48:21;17.07;;;14.20;;
291;SDS011;23311;48.776;9.162;2023-03-01T14:50:50;18.13;;;14.53;;
291;SDS011;23311;48.776;9.162;2023-03-01T14:53:19;18.13;;;14.57;;
291;SDS011;23311;48.776;9.162;2023-03-01T14:55:55;20.33;;;14.97;;
291;SDS011;23311;48.776;9.162;2023-03-01T14:58:28;18.90;;;13.97;;
291;SDS011;23311;48.776;9.162;2023-03-01T15:01:01;19.63;;;14.87;;
291;SDS011;23311;48.776;9.162;2023-03-01T15:03:32;18.77;;;14.70;;
291;SDS011;23311;48.776;9.162;2023-03-01T15:06:03;15.73;;;13.50;;
291;SDS011;23311;48.776;9.162;2023-03-01T15:08:34;18.10;;;14.73;;
291;SDS011;23311;48.776;9.162;2023-03-01T15:11:04;18.20;;;13.47;;
291;SDS011;23311;48.776;9.162;2023-03-01T15:13:44;20.63;;;14.77;;
291;SDS011;23311;48.776;9.162;2023-03-01T15:16:15;17.67;;;13.40;;
291;SDS011;23311;48.776;9.162;2023-03-01T15:18:46;16.23;;;13.97;;
291;SDS011;23311;48.776;9.162;2023-03-01T15:21:16;19.73;;;14.57;;
291;SDS011;23311;48.776;9.162;2023-03-01T15:23:48;18.50;;;13.67;;
291;SDS011;23311;48.776;9.162;2023-03-01T15:26:24;20.10;;;15.27;;
291;SDS011;23311;48.776;9.162;2023-03-01T15:28:56;21.10;;;15.30;;
291;SDS011;23311;48.776;9.162;2023-03-01T15:31:28;17.27;;;14.30;;
291;SDS011;23311;48.776;9.162;2023-03-01T15:34:07;21.40;;;14.43;;
291;SDS011;23311;48.776;9.162;2023-03-01T15:36:50;20.07;;;14.70;;
291;SDS011;23311;48.776;9.162;2023-03-01T15:39:27;23.07;;;15.20;;